sensor_id;sensor_type;location;lat;lon;timestamp;temperature;humidity
13978;DHT22;7063;49.260;8.636;2023-02-28T13:00:19;5.70;19.70
13978;DHT22;7063;49.260;8.636;2023-02-28T13:11:00;5.60;18.60
13978;DHT22;7063;49.260;8.636;2023-02-28T13:13:28;5.60;19.20
13978;DHT22;7063;49.260;8.636;2023-02-28T13:18:46;5.50;19.90
13978;DHT22;7063;49.260;8.636;2023-02-28T13:21:29;5.60;19.90
13978;DHT22;7063;49.260;8.636;2023-02-28T13:23:57;5.60;19.10
13978;DHT22;7063;49.260;8.636;2023-02-28T13:34:31;5.60;18.50
13978;DHT22;7063;49.260;8.636;2023-02-28T13:39:55;5.70;17.60
13978;DHT22;7063;49.260;8.636;2023-02-28T13:45:21;5.60;18.30
13978;DHT22;7063;49.260;8.636;2023-02-28T13:47:58;5.60;18.40
13978;DHT22;7063;49.260;8.636;2023-02-28T13:59:01;5.80;17.10
13978;DHT22;7063;49.260;8.636;2023-02-28T14:01:53;6.50;17.50
13978;DHT22;7063;49.260;8.636;2023-02-28T14:04:46;6.80;16.90
13978;DHT22;7063;49.260;8.636;2023-02-28T14:07:37;6.40;14.70
13978;DHT22;7063;49.260;8.636;2023-02-28T14:10:06;6.30;15.90
13978;DHT22;7063;49.260;8.636;2023-02-28T14:18:47;6.60;15.80
13978;DHT22;7063;49.260;8.636;2023-02-28T14:21:23;6.70;14.20
13978;DHT22;7063;49.260;8.636;2023-02-28T14:37:54;5.90;16.20
13978;DHT22;7063;49.260;8.636;2023-02-28T14:43:03;6.10;14.90
13978;DHT22;7063;49.260;8.636;2023-02-28T14:45:31;5.90;16.10
13978;DHT22;7063;49.260;8.636;2023-02-28T14:47:58;6.00;16.20
13978;DHT22;7063;49.260;8.636;2023-02-28T14:50:30;6.10;15.80
13978;DHT22;7063;49.260;8.636;2023-02-28T14:52:56;6.00;15.70
13978;DHT22;7063;49.260;8.636;2023-02-28T14:55:26;6.20;17.30
13978;DHT22;7063;49.260;8.636;2023-02-28T14:58:26;6.20;15.80
13978;DHT22;7063;49.260;8.636;2023-02-28T15:00:55;6.20;16.20
13978;DHT22;7063;49.260;8.636;2023-02-28T15:03:34;6.20;16.20
13978;DHT22;7063;49.260;8.636;2023-02-28T15:06:02;6.20;16.60
13978;DHT22;7063;49.260;8.636;2023-02-28T15:08:29;6.20;15.70
13978;DHT22;7063;49.260;8.636;2023-02-28T15:11:02;6.30;16.00
13978;DHT22;7063;49.260;8.636;2023-02-28T15:16:11;6.00;15.90
13978;DHT22;7063;49.260;8.636;2023-02-28T15:18:48;5.90;16.30
13978;DHT22;7063;49.260;8.636;2023-02-28T15:23:51;6.00;16.30
13978;DHT22;7063;49.260;8.636;2023-02-28T15:26:21;6.00;15.90
13978;DHT22;7063;49.260;8.636;2023-02-28T15:28:54;6.00;16.10
13978;DHT22;7063;49.260;8.636;2023-02-28T15:31:40;6.00;15.70
13978;DHT22;7063;49.260;8.636;2023-02-28T15:34:20;6.20;15.90
13978;DHT22;7063;49.260;8.636;2023-02-28T15:36:47;6.30;16.50
13978;DHT22;7063;49.260;8.636;2023-02-28T15:39:27;6.20;15.80
13978;DHT22;7063;49.260;8.636;2023-02-28T15:42:17;6.20;17.00
13978;DHT22;7063;49.260;8.636;2023-02-28T15:44:43;6.00;16.70
13978;DHT22;7063;49.260;8.636;2023-02-28T15:47:21;6.10;16.50
13978;DHT22;7063;49.260;8.636;2023-02-28T15:49:51;5.90;15.90
13978;DHT22;7063;49.260;8.636;2023-02-28T15:52:21;5.80;16.60
13978;DHT22;7063;49.260;8.636;2023-02-28T15:54:48;5.80;16.50
13978;DHT22;7063;49.260;8.636;2023-02-28T15:57:23;5.80;16.50
13978;DHT22;7063;49.260;8.636;2023-02-28T15:59:54;5.80;16.50
13978;DHT22;7063;49.260;8.636;2023-02-28T16:02:43;5.80;16.40
13978;DHT22;7063;49.260;8.636;2023-02-28T16:07:34;5.50;16.60
13978;DHT22;7063;49.260;8.636;2023-02-28T16:10:01;5.50;17.60
13978;DHT22;7063;49.260;8.636;2023-02-28T16:12:33;5.50;17.40
13978;DHT22;7063;49.260;8.636;2023-02-28T16:15:02;5.50;17.80
13978;DHT22;7063;49.260;8.636;2023-02-28T16:17:33;5.40;18.00
13978;DHT22;7063;49.260;8.636;2023-02-28T16:20:00;5.30;18.20
13978;DHT22;7063;49.260;8.636;2023-02-28T16:22:25;5.30;18.70
13978;DHT22;7063;49.260;8.636;2023-02-28T16:24:51;5.20;18.50
13978;DHT22;7063;49.260;8.636;2023-02-28T16:27:21;5.30;18.80
13978;DHT22;7063;49.260;8.636;2023-02-28T16:29:50;5.20;19.00
13978;DHT22;7063;49.260;8.636;2023-02-28T16:32:15;5.10;19.20
13978;DHT22;7063;49.260;8.636;2023-02-28T16:34:43;5.10;19.50
13978;DHT22;7063;49.260;8.636;2023-02-28T16:37:13;5.10;19.70
13978;DHT22;7063;49.260;8.636;2023-02-28T16:39:40;5.00;19.60
13978;DHT22;7063;49.260;8.636;2023-02-28T16:42:09;5.00;20.40
13978;DHT22;7063;49.260;8.636;2023-02-28T16:44:35;4.90;19.90
13978;DHT22;7063;49.260;8.636;2023-02-28T18:49:09;3.80;24.70
